createdAt,value
2018-08-23T00:00:58.819Z,0
2018-08-23T00:01:58.810Z,0
2018-08-23T00:02:58.895Z,0
2018-08-23T00:03:59.064Z,0
2018-08-23T00:04:59.062Z,0
2018-08-23T00:05:59.071Z,0
2018-08-23T00:06:58.809Z,0
2018-08-23T00:07:58.841Z,0
2018-08-23T00:08:59.159Z,0
2018-08-23T00:09:59.096Z,0
2018-08-23T00:10:59.093Z,0
2018-08-23T00:11:58.814Z,0
2018-08-23T00:12:59.048Z,0
2018-08-23T00:13:59.207Z,0
2018-08-23T00:14:58.775Z,0
2018-08-23T00:15:58.549Z,0
2018-08-23T00:16:58.963Z,0
2018-08-23T00:17:58.817Z,0
2018-08-23T00:18:58.771Z,0
2018-08-23T00:19:58.507Z,0
2018-08-23T00:20:58.761Z,0
2018-08-23T00:21:58.756Z,0
2018-08-23T00:22:58.752Z,0
2018-08-23T00:23:59.009Z,0
2018-08-23T00:24:58.742Z,0
2018-08-23T00:25:58.998Z,0
2018-08-23T00:26:58.836Z,0
2018-08-23T00:27:58.737Z,0
2018-08-23T00:28:59.000Z,0
2018-08-23T00:29:58.474Z,0
2018-08-23T00:30:58.993Z,0
2018-08-23T00:31:58.981Z,0
2018-08-23T00:32:58.765Z,0
2018-08-23T00:33:58.976Z,0
2018-08-23T00:34:58.716Z,0
2018-08-23T00:35:58.968Z,0
2018-08-23T00:36:58.972Z,0
2018-08-23T00:37:58.756Z,0
2018-08-23T00:38:58.709Z,0
2018-08-23T00:39:58.204Z,0
2018-08-23T00:40:58.960Z,0
2018-08-23T00:41:58.450Z,0
2018-08-23T00:42:58.696Z,0
2018-08-23T00:43:58.182Z,0
2018-08-23T00:44:58.950Z,0
2018-08-23T00:45:58.694Z,0
2018-08-23T00:46:58.689Z,0
2018-08-23T00:47:58.684Z,0
2018-08-23T00:48:58.688Z,0
2018-08-23T00:49:58.676Z,0
2018-08-23T00:50:58.931Z,0
2018-08-23T00:51:58.946Z,0
2018-08-23T00:52:58.415Z,0
2018-08-23T00:53:58.927Z,0
2018-08-23T00:54:58.924Z,0
2018-08-23T00:55:58.670Z,0
2018-08-23T00:56:58.928Z,0
2018-08-23T00:57:58.917Z,0
2018-08-23T00:58:58.656Z,0
2018-08-23T00:59:58.655Z,0
2018-08-23T01:00:58.909Z,0
2018-08-23T01:01:58.647Z,0
2018-08-23T01:02:58.642Z,0
2018-08-23T01:03:58.899Z,0
2018-08-23T01:04:58.434Z,0
2018-08-23T01:05:58.894Z,0
2018-08-23T01:06:58.895Z,0
2018-08-23T01:07:58.884Z,0
2018-08-23T01:08:58.685Z,0
2018-08-23T01:09:58.878Z,0
2018-08-23T01:10:58.883Z,0
2018-08-23T01:11:58.887Z,0
2018-08-23T01:12:58.629Z,0
2018-08-23T01:13:58.616Z,0
2018-08-23T01:14:58.904Z,0
2018-08-23T01:15:58.870Z,0
2018-08-23T01:16:58.682Z,0
2018-08-23T01:17:58.605Z,0
2018-08-23T01:18:58.344Z,0
2018-08-23T01:19:58.598Z,0
2018-08-23T01:20:58.603Z,0
2018-08-23T01:21:58.333Z,0
2018-08-23T01:22:58.591Z,0
2018-08-23T01:23:58.591Z,0
2018-08-23T01:24:58.863Z,0
2018-08-23T01:25:58.843Z,0
2018-08-23T01:26:58.320Z,0
2018-08-23T01:27:58.835Z,0
2018-08-23T01:28:58.831Z,0
2018-08-23T01:29:58.317Z,0
2018-08-23T01:30:58.570Z,0
2018-08-23T01:31:58.821Z,0
2018-08-23T01:32:58.815Z,0
2018-08-23T01:33:58.564Z,0
2018-08-23T01:34:58.554Z,0
2018-08-23T01:35:58.812Z,0
2018-08-23T01:36:58.312Z,0
2018-08-23T01:37:58.292Z,0
2018-08-23T01:38:58.801Z,0
2018-08-23T01:39:58.285Z,0
2018-08-23T01:40:58.540Z,0
2018-08-23T01:41:58.540Z,0
2018-08-23T01:42:58.797Z,0
2018-08-23T01:43:58.794Z,0
2018-08-23T01:44:58.783Z,0
2018-08-23T01:45:58.533Z,0
2018-08-23T01:46:58.523Z,0
2018-08-23T01:47:58.522Z,0
2018-08-23T01:48:58.778Z,0
2018-08-23T01:49:58.515Z,0
2018-08-23T01:50:58.769Z,0
2018-08-23T01:51:58.007Z,0
2018-08-23T01:52:58.772Z,0
2018-08-23T01:53:58.505Z,0
2018-08-23T01:54:58.762Z,0
2018-08-23T01:55:58.758Z,0
2018-08-23T01:56:58.245Z,0
2018-08-23T01:57:58.508Z,0
2018-08-23T01:58:57.983Z,0
2018-08-23T01:59:58.490Z,0
2018-08-23T02:00:58.496Z,0
2018-08-23T02:01:58.487Z,0
2018-08-23T02:02:58.481Z,0
2018-08-23T02:03:58.483Z,0
2018-08-23T02:04:58.488Z,0
2018-08-23T02:05:58.743Z,0
2018-08-23T02:06:58.474Z,0
2018-08-23T02:07:58.249Z,0
2018-08-23T02:08:58.724Z,0
2018-08-23T02:09:58.475Z,0
2018-08-23T02:10:58.203Z,0
2018-08-23T02:11:58.717Z,0
2018-08-23T02:12:58.712Z,0
2018-08-23T02:13:58.717Z,0
2018-08-23T02:14:58.708Z,0
2018-08-23T02:15:58.450Z,0
2018-08-23T02:16:58.447Z,0
2018-08-23T02:17:58.461Z,0
2018-08-23T02:18:58.438Z,0
2018-08-23T02:19:58.431Z,0
2018-08-23T02:20:58.442Z,0
2018-08-23T02:21:58.179Z,0
2018-08-23T02:22:58.436Z,0
2018-08-23T02:23:58.172Z,0
2018-08-23T02:24:58.172Z,0
2018-08-23T02:25:58.422Z,0
2018-08-23T02:26:58.679Z,0
2018-08-23T02:27:58.414Z,0
2018-08-23T02:28:58.669Z,0
2018-08-23T02:29:58.416Z,0
2018-08-23T02:30:58.666Z,0
2018-08-23T02:31:58.660Z,0
2018-08-23T02:32:58.654Z,0
2018-08-23T02:33:58.403Z,0
2018-08-23T02:34:58.401Z,0
2018-08-23T02:35:58.393Z,0
2018-08-23T02:36:58.651Z,0
2018-08-23T02:37:58.400Z,0
2018-08-23T02:38:58.398Z,0
2018-08-23T02:39:58.388Z,0
2018-08-23T02:40:58.645Z,0
2018-08-23T02:41:58.127Z,0
2018-08-23T02:42:58.375Z,0
2018-08-23T02:43:58.635Z,0
2018-08-23T02:44:58.118Z,0
2018-08-23T02:45:58.375Z,0
2018-08-23T02:46:58.364Z,0
2018-08-23T02:47:58.363Z,0
2018-08-23T02:48:58.367Z,0
2018-08-23T02:49:58.368Z,0
2018-08-23T02:50:58.624Z,0
2018-08-23T02:51:58.613Z,0
2018-08-23T02:52:58.654Z,0
2018-08-23T02:53:58.611Z,0
2018-08-23T02:54:58.349Z,0
2018-08-23T02:55:58.626Z,0
2018-08-23T02:56:58.083Z,0
2018-08-23T02:57:58.082Z,0
2018-08-23T02:58:58.599Z,0
2018-08-23T02:59:58.590Z,0
2018-08-23T03:00:58.589Z,0
2018-08-23T03:01:58.340Z,0
2018-08-23T03:02:58.334Z,0
2018-08-23T03:03:58.322Z,0
2018-08-23T03:04:58.319Z,0
2018-08-23T03:05:58.062Z,0
2018-08-23T03:06:58.590Z,0
2018-08-23T03:07:58.311Z,0
2018-08-23T03:08:58.302Z,0
2018-08-23T03:09:58.044Z,0
2018-08-23T03:10:58.300Z,0
2018-08-23T03:11:58.300Z,0
2018-08-23T03:12:58.551Z,0
2018-08-23T03:13:58.573Z,0
2018-08-23T03:14:58.562Z,0
2018-08-23T03:15:58.541Z,0
2018-08-23T03:16:58.029Z,0
2018-08-23T03:17:58.021Z,0
2018-08-23T03:18:58.277Z,0
2018-08-23T03:19:58.268Z,0
2018-08-23T03:20:58.020Z,0
2018-08-23T03:21:58.516Z,0
2018-08-23T03:22:58.526Z,0
2018-08-23T03:23:57.998Z,0
2018-08-23T03:24:58.509Z,0
2018-08-23T03:25:58.518Z,0
2018-08-23T03:26:58.249Z,0
2018-08-23T03:27:58.512Z,0
2018-08-23T03:28:57.986Z,0
2018-08-23T03:29:58.501Z,0
2018-08-23T03:30:57.979Z,0
2018-08-23T03:31:57.987Z,0
2018-08-23T03:32:58.492Z,0
2018-08-23T03:33:58.235Z,0
2018-08-23T03:34:58.484Z,0
2018-08-23T03:35:58.492Z,0
2018-08-23T03:36:58.224Z,0
2018-08-23T03:37:58.471Z,0
2018-08-23T03:38:58.471Z,0
2018-08-23T03:39:57.969Z,0
2018-08-23T03:40:58.463Z,0
2018-08-23T03:41:58.205Z,0
2018-08-23T03:42:58.207Z,0
2018-08-23T03:43:57.938Z,0
2018-08-23T03:44:58.189Z,0
2018-08-23T03:45:57.943Z,0
2018-08-23T03:46:58.182Z,0
2018-08-23T03:47:58.445Z,0
2018-08-23T03:48:58.181Z,0
2018-08-23T03:49:58.180Z,0
2018-08-23T03:50:58.170Z,0
2018-08-23T03:51:58.441Z,0
2018-08-23T03:52:58.433Z,0
2018-08-23T03:53:57.906Z,0
2018-08-23T03:54:57.905Z,0
2018-08-23T03:55:58.423Z,0
2018-08-23T03:56:58.162Z,0
2018-08-23T03:57:58.151Z,0
2018-08-23T03:58:58.162Z,0
2018-08-23T03:59:57.889Z,0
2018-08-23T04:00:58.142Z,0
2018-08-23T04:01:57.627Z,0
2018-08-23T04:02:58.390Z,0
2018-08-23T04:03:58.391Z,0
2018-08-23T04:04:58.387Z,0
2018-08-23T04:05:57.609Z,0
2018-08-23T04:06:58.123Z,0
2018-08-23T04:07:58.389Z,5
2018-08-23T04:08:58.380Z,5
2018-08-23T04:09:58.365Z,5
2018-08-23T04:10:58.103Z,5
2018-08-23T04:11:58.377Z,5
2018-08-23T04:12:58.100Z,5
2018-08-23T04:13:58.100Z,5
2018-08-23T04:14:58.354Z,5
2018-08-23T04:15:58.090Z,5
2018-08-23T04:16:58.097Z,10
2018-08-23T04:17:58.101Z,10
2018-08-23T04:18:57.827Z,10
2018-08-23T04:19:57.820Z,10
2018-08-23T04:20:58.103Z,10
2018-08-23T04:21:58.334Z,10
2018-08-23T04:22:58.863Z,15
2018-08-23T04:23:58.067Z,15
2018-08-23T04:24:58.060Z,15
2018-08-23T04:25:58.062Z,15
2018-08-23T04:26:58.052Z,15
2018-08-23T04:27:58.310Z,15
2018-08-23T04:28:58.305Z,20
2018-08-23T04:29:58.060Z,20
2018-08-23T04:30:58.038Z,20
2018-08-23T04:31:57.781Z,20
2018-08-23T04:32:58.053Z,25
2018-08-23T04:33:58.294Z,25
2018-08-23T04:34:58.285Z,25
2018-08-23T04:35:58.292Z,25
2018-08-23T04:36:58.022Z,30
2018-08-23T04:37:58.277Z,30
2018-08-23T04:38:58.270Z,30
2018-08-23T04:39:58.015Z,30
2018-08-23T04:40:58.271Z,35
2018-08-23T04:41:58.010Z,35
2018-08-23T04:42:57.748Z,35
2018-08-23T04:43:57.999Z,35
2018-08-23T04:44:57.995Z,35
2018-08-23T04:45:58.254Z,40
2018-08-23T04:46:57.734Z,40
2018-08-23T04:47:58.246Z,40
2018-08-23T04:48:58.242Z,40
2018-08-23T04:49:57.980Z,45
2018-08-23T04:50:58.277Z,45
2018-08-23T04:51:58.285Z,45
2018-08-23T04:52:58.241Z,45
2018-08-23T04:53:57.966Z,45
2018-08-23T04:54:58.217Z,50
2018-08-23T04:55:58.220Z,50
2018-08-23T04:56:58.216Z,50
2018-08-23T04:57:58.220Z,50
2018-08-23T04:58:58.209Z,55
2018-08-23T04:59:57.947Z,55
2018-08-23T05:00:57.953Z,55
2018-08-23T05:01:58.199Z,55
2018-08-23T05:02:57.678Z,55
2018-08-23T05:03:58.097Z,60
2018-08-23T05:04:58.189Z,60
2018-08-23T05:05:57.935Z,60
2018-08-23T05:06:57.934Z,60
2018-08-23T05:07:57.929Z,60
2018-08-23T05:08:58.193Z,65
2018-08-23T05:09:57.918Z,65
2018-08-23T05:10:57.911Z,65
2018-08-23T05:11:58.174Z,65
2018-08-23T05:12:57.912Z,65
2018-08-23T05:13:58.248Z,65
2018-08-23T05:14:57.903Z,70
2018-08-23T05:15:58.204Z,70
2018-08-23T05:16:57.899Z,70
2018-08-23T05:17:57.898Z,70
2018-08-23T05:19:29.732Z,70
2018-08-23T05:19:57.885Z,70
2018-08-23T05:20:58.140Z,75
2018-08-23T05:21:57.624Z,75
2018-08-23T05:22:58.139Z,75
2018-08-23T05:23:57.876Z,75
2018-08-23T05:24:57.832Z,75
2018-08-23T05:25:58.131Z,75
2018-08-23T05:26:58.125Z,75
2018-08-23T05:27:58.123Z,80
2018-08-23T05:28:58.119Z,80
2018-08-23T05:29:58.165Z,80
2018-08-23T05:30:58.120Z,80
2018-08-23T05:31:58.130Z,80
2018-08-23T05:32:58.112Z,80
2018-08-23T05:33:58.112Z,80
2018-08-23T05:34:58.124Z,85
2018-08-23T05:35:57.846Z,85
2018-08-23T05:36:57.589Z,85
2018-08-23T05:37:58.100Z,85
2018-08-23T05:38:58.093Z,85
2018-08-23T05:39:57.828Z,85
2018-08-23T05:40:58.093Z,85
2018-08-23T05:41:57.835Z,85
2018-08-23T05:42:57.568Z,85
2018-08-23T05:43:58.079Z,90
2018-08-23T05:44:58.074Z,90
2018-08-23T05:45:58.087Z,90
2018-08-23T05:46:57.812Z,90
2018-08-23T05:47:58.125Z,90
2018-08-23T05:48:57.811Z,90
2018-08-23T05:49:58.061Z,90
2018-08-23T05:50:57.851Z,90
2018-08-23T05:51:58.062Z,90
2018-08-23T05:52:58.063Z,90
2018-08-23T05:53:58.066Z,90
2018-08-23T05:54:57.801Z,95
2018-08-23T05:55:57.798Z,95
2018-08-23T05:56:58.052Z,95
2018-08-23T05:57:58.045Z,95
2018-08-23T05:58:57.788Z,95
2018-08-23T05:59:58.041Z,95
2018-08-23T06:00:57.785Z,95
2018-08-23T06:01:57.785Z,95
2018-08-23T06:02:58.454Z,95
2018-08-23T06:03:57.796Z,95
2018-08-23T06:04:58.047Z,95
2018-08-23T06:05:57.774Z,100
2018-08-23T06:06:57.780Z,100
2018-08-23T06:07:57.772Z,100
2018-08-23T06:08:58.029Z,100
2018-08-23T06:09:58.025Z,100
2018-08-23T06:10:58.017Z,100
2018-08-23T06:11:57.758Z,100
2018-08-23T06:12:58.018Z,100
2018-08-23T06:13:58.020Z,100
2018-08-23T06:14:57.241Z,100
2018-08-23T06:15:58.016Z,100
2018-08-23T06:16:58.011Z,100
2018-08-23T06:17:57.496Z,100
2018-08-23T06:18:58.017Z,105
2018-08-23T06:19:57.927Z,105
2018-08-23T06:20:58.005Z,105
2018-08-23T06:21:57.742Z,105
2018-08-23T06:22:57.752Z,105
2018-08-23T06:23:58.007Z,105
2018-08-23T06:24:57.994Z,105
2018-08-23T06:25:57.221Z,105
2018-08-23T06:26:57.993Z,105
2018-08-23T06:27:57.993Z,105
2018-08-23T06:28:57.997Z,105
2018-08-23T06:29:57.485Z,110
2018-08-23T06:30:57.474Z,110
2018-08-23T06:31:57.738Z,110
2018-08-23T06:32:58.764Z,110
2018-08-23T06:33:58.046Z,110
2018-08-23T06:34:58.000Z,110
2018-08-23T06:35:57.471Z,110
2018-08-23T06:36:57.979Z,110
2018-08-23T06:37:57.475Z,110
2018-08-23T06:38:57.965Z,110
2018-08-23T06:39:58.030Z,115
2018-08-23T06:40:57.979Z,115
2018-08-23T06:41:57.722Z,115
2018-08-23T06:42:57.724Z,115
2018-08-23T06:43:57.453Z,120
2018-08-23T06:44:57.717Z,125
2018-08-23T06:45:58.043Z,125
2018-08-23T06:46:57.449Z,130
2018-08-23T06:47:57.704Z,145
2018-08-23T06:48:58.396Z,175
2018-08-23T06:49:57.717Z,195
2018-08-23T06:50:57.194Z,190
2018-08-23T06:51:57.477Z,205
2018-08-23T06:52:57.960Z,240
2018-08-23T06:53:57.698Z,240
2018-08-23T06:54:57.707Z,245
2018-08-23T06:55:57.970Z,280
2018-08-23T06:56:57.707Z,275
2018-08-23T06:57:57.717Z,275
2018-08-23T06:58:57.639Z,275
2018-08-23T06:59:57.448Z,280
2018-08-23T07:00:57.967Z,285
2018-08-23T07:01:57.961Z,290
2018-08-23T07:02:57.961Z,300
2018-08-23T07:03:57.725Z,305
2018-08-23T07:04:57.978Z,315
2018-08-23T07:05:57.968Z,315
2018-08-23T07:06:58.427Z,320
2018-08-23T07:07:57.720Z,325
2018-08-23T07:08:57.979Z,335
2018-08-23T07:09:57.738Z,335
2018-08-23T07:10:57.994Z,330
2018-08-23T07:11:58.223Z,320
2018-08-23T07:12:57.747Z,310
2018-08-23T07:13:57.751Z,285
2018-08-23T07:14:57.749Z,240
2018-08-23T07:15:57.497Z,200
2018-08-23T07:16:57.505Z,185
2018-08-23T07:17:57.969Z,170
2018-08-23T07:18:58.030Z,165
2018-08-23T07:19:58.044Z,155
2018-08-23T07:20:58.045Z,155
2018-08-23T07:21:58.053Z,150
2018-08-23T07:22:57.805Z,150
2018-08-23T07:23:57.553Z,145
2018-08-23T07:24:57.818Z,145
2018-08-23T07:25:57.825Z,145
2018-08-23T07:26:58.159Z,140
2018-08-23T07:27:58.100Z,140
2018-08-23T07:28:58.151Z,140
2018-08-23T07:29:58.710Z,140
2018-08-23T07:30:58.129Z,140
2018-08-23T07:31:57.874Z,140
2018-08-23T07:32:58.193Z,140
2018-08-23T07:33:57.705Z,140
2018-08-23T07:34:58.155Z,140
2018-08-23T07:35:57.981Z,140
2018-08-23T07:36:57.917Z,140
2018-08-23T07:37:58.175Z,140
2018-08-23T07:38:58.192Z,140
2018-08-23T07:39:57.957Z,140
2018-08-23T07:40:57.948Z,140
2018-08-23T07:41:57.745Z,140
2018-08-23T07:42:58.096Z,140
2018-08-23T07:43:58.232Z,140
2018-08-23T07:44:57.978Z,140
2018-08-23T07:45:57.984Z,140
2018-08-23T07:46:57.993Z,140
2018-08-23T07:47:57.748Z,140
2018-08-23T07:48:58.355Z,140
2018-08-23T07:49:58.388Z,140
2018-08-23T07:50:58.276Z,140
2018-08-23T07:51:57.766Z,140
2018-08-23T07:52:59.164Z,140
2018-08-23T07:53:57.776Z,140
2018-08-23T07:54:58.090Z,140
2018-08-23T07:55:58.309Z,140
2018-08-23T07:56:57.812Z,140
2018-08-23T07:57:58.323Z,140
2018-08-23T07:58:58.079Z,140
2018-08-23T07:59:58.332Z,145
2018-08-23T08:00:58.340Z,140
2018-08-23T08:01:58.092Z,140
2018-08-23T08:02:58.353Z,140
2018-08-23T08:03:57.847Z,140
2018-08-23T08:04:58.360Z,140
2018-08-23T08:05:58.372Z,140
2018-08-23T08:06:58.122Z,140
2018-08-23T08:07:58.394Z,140
2018-08-23T08:08:58.388Z,140
2018-08-23T08:09:58.395Z,140
2018-08-23T08:10:58.399Z,140
2018-08-23T08:11:58.421Z,140
2018-08-23T08:12:58.412Z,140
2018-08-23T08:13:58.166Z,140
2018-08-23T08:14:58.964Z,140
2018-08-23T08:15:58.423Z,140
2018-08-23T08:16:57.919Z,140
2018-08-23T08:17:57.932Z,140
2018-08-23T08:18:58.445Z,140
2018-08-23T08:19:58.453Z,140
2018-08-23T08:20:58.497Z,140
2018-08-23T08:21:58.473Z,140
2018-08-23T08:22:58.564Z,140
2018-08-23T08:23:58.215Z,140
2018-08-23T08:24:58.480Z,140
2018-08-23T08:25:58.249Z,140
2018-08-23T08:26:57.978Z,140
2018-08-23T08:27:57.984Z,140
2018-08-23T08:28:57.984Z,140
2018-08-23T08:29:58.508Z,140
2018-08-23T08:30:58.517Z,140
2018-08-23T08:31:58.003Z,140
2018-08-23T08:32:57.757Z,140
2018-08-23T08:33:58.016Z,140
2018-08-23T08:34:58.023Z,140
2018-08-23T08:35:58.604Z,140
2018-08-23T08:36:58.288Z,140
2018-08-23T08:37:58.292Z,140
2018-08-23T08:38:58.559Z,140
2018-08-23T08:39:58.569Z,140
2018-08-23T08:40:58.062Z,140
2018-08-23T08:41:58.114Z,140
2018-08-23T08:42:58.326Z,140
2018-08-23T08:43:58.330Z,140
2018-08-23T08:44:58.333Z,140
2018-08-23T08:45:58.348Z,140
2018-08-23T08:46:58.340Z,140
2018-08-23T08:47:58.620Z,140
2018-08-23T08:48:58.353Z,140
2018-08-23T08:49:58.358Z,140
2018-08-23T08:50:58.370Z,140
2018-08-23T08:51:58.115Z,140
2018-08-23T08:52:58.642Z,140
2018-08-23T08:53:58.645Z,140
2018-08-23T08:54:58.385Z,140
2018-08-23T08:55:58.134Z,140
2018-08-23T08:56:59.039Z,140
2018-08-23T08:57:59.092Z,140
2018-08-23T08:58:58.669Z,140
2018-08-23T08:59:58.420Z,140
2018-08-23T09:00:58.169Z,140
2018-08-23T09:01:58.680Z,140
2018-08-23T09:02:57.920Z,140
2018-08-23T09:03:58.187Z,140
2018-08-23T09:04:58.443Z,140
2018-08-23T09:05:58.192Z,140
2018-08-23T09:06:58.729Z,140
2018-08-23T09:07:58.720Z,140
2018-08-23T09:08:58.724Z,140
2018-08-23T09:09:59.319Z,140
2018-08-23T09:10:58.740Z,140
2018-08-23T09:11:58.530Z,140
2018-08-23T09:12:58.503Z,140
2018-08-23T09:13:58.245Z,140
2018-08-23T09:14:58.759Z,140
2018-08-23T09:15:58.510Z,140
2018-08-23T09:16:58.803Z,140
2018-08-23T09:17:58.522Z,145
2018-08-23T09:18:58.847Z,140
2018-08-23T09:19:58.808Z,140
2018-08-23T09:20:59.140Z,140
2018-08-23T09:21:58.597Z,140
2018-08-23T09:22:58.564Z,140
2018-08-23T09:23:58.813Z,140
2018-08-23T09:24:58.299Z,145
2018-08-23T09:25:58.314Z,145
2018-08-23T09:26:58.063Z,145
2018-08-23T09:27:58.833Z,150
2018-08-23T09:28:58.591Z,155
2018-08-23T09:29:58.329Z,155
2018-08-23T09:30:58.599Z,155
2018-08-23T09:31:58.402Z,150
2018-08-23T09:32:58.616Z,150
2018-08-23T09:33:58.872Z,155
2018-08-23T09:34:58.818Z,150
2018-08-23T09:35:58.918Z,150
2018-08-23T09:36:58.374Z,150
2018-08-23T09:37:59.418Z,150
2018-08-23T09:38:58.127Z,150
2018-08-23T09:39:58.908Z,150
2018-08-23T09:40:58.911Z,155
2018-08-23T09:41:58.404Z,155
2018-08-23T09:42:59.150Z,150
2018-08-23T09:43:58.672Z,150
2018-08-23T09:44:58.941Z,150
2018-08-23T09:45:58.950Z,150
2018-08-23T09:46:58.491Z,150
2018-08-23T09:47:58.697Z,145
2018-08-23T09:48:58.445Z,150
2018-08-23T09:49:58.986Z,150
2018-08-23T09:50:59.094Z,145
2018-08-23T09:51:58.993Z,135
2018-08-23T09:52:58.465Z,145
2018-08-23T09:53:58.729Z,145
2018-08-23T09:54:58.480Z,145
2018-08-23T09:55:58.994Z,145
2018-08-23T09:56:59.007Z,150
2018-08-23T09:57:58.748Z,160
2018-08-23T09:58:58.840Z,160
2018-08-23T09:59:58.764Z,160
2018-08-23T10:00:59.037Z,160
2018-08-23T10:01:58.776Z,140
2018-08-23T10:02:58.523Z,145
2018-08-23T10:03:58.535Z,165
2018-08-23T10:04:59.017Z,165
2018-08-23T10:05:58.799Z,165
2018-08-23T10:06:58.804Z,140
2018-08-23T10:07:58.822Z,145
2018-08-23T10:08:58.818Z,160
2018-08-23T10:09:59.087Z,135
2018-08-23T10:10:59.085Z,130
2018-08-23T10:11:59.696Z,125
2018-08-23T10:12:58.842Z,135
2018-08-23T10:13:58.849Z,120
2018-08-23T10:14:58.864Z,115
2018-08-23T10:15:59.113Z,110
2018-08-23T10:16:58.351Z,110
2018-08-23T10:17:59.135Z,110
2018-08-23T10:18:58.877Z,115
2018-08-23T10:19:58.885Z,145
2018-08-23T10:20:59.152Z,150
2018-08-23T10:21:58.648Z,150
2018-08-23T10:22:58.901Z,150
2018-08-23T10:23:58.905Z,150
2018-08-23T10:24:59.180Z,160
2018-08-23T10:25:58.929Z,160
2018-08-23T10:26:58.677Z,160
2018-08-23T10:27:58.935Z,180
2018-08-23T10:28:59.196Z,195
2018-08-23T10:29:58.939Z,210
2018-08-23T10:30:58.693Z,220
2018-08-23T10:31:58.217Z,225
2018-08-23T10:32:58.956Z,235
2018-08-23T10:33:59.219Z,245
2018-08-23T10:34:59.222Z,235
2018-08-23T10:35:59.239Z,220
2018-08-23T10:36:58.979Z,205
2018-08-23T10:37:59.243Z,190
2018-08-23T10:38:58.993Z,180
2018-08-23T10:39:59.257Z,180
2018-08-23T10:40:59.295Z,175
2018-08-23T10:41:59.275Z,170
2018-08-23T10:42:59.014Z,165
2018-08-23T10:43:59.025Z,165
2018-08-23T10:44:59.030Z,170
2018-08-23T10:45:58.777Z,185
2018-08-23T10:46:59.090Z,190
2018-08-23T10:47:58.791Z,195
2018-08-23T10:48:59.318Z,205
2018-08-23T10:49:58.807Z,215
2018-08-23T10:50:59.772Z,220
2018-08-23T10:51:59.081Z,225
2018-08-23T10:52:59.338Z,230
2018-08-23T10:53:59.090Z,235
2018-08-23T10:54:59.356Z,235
2018-08-23T10:55:58.588Z,230
2018-08-23T10:56:59.111Z,225
2018-08-23T10:57:59.119Z,220
2018-08-23T10:58:58.919Z,220
2018-08-23T10:59:58.870Z,230
2018-08-23T11:00:59.425Z,245
2018-08-23T11:01:59.400Z,260
2018-08-23T11:02:59.146Z,275
2018-08-23T11:03:59.417Z,290
2018-08-23T11:04:58.908Z,290
2018-08-23T11:05:59.173Z,285
2018-08-23T11:06:58.918Z,280
2018-08-23T11:07:59.438Z,270
2018-08-23T11:08:58.934Z,265
2018-08-23T11:09:59.244Z,260
2018-08-23T11:10:59.214Z,260
2018-08-23T11:11:59.482Z,270
2018-08-23T11:12:59.479Z,285
2018-08-23T11:13:59.491Z,290
2018-08-23T11:14:58.979Z,290
2018-08-23T11:15:59.497Z,270
2018-08-23T11:17:00.372Z,265
2018-08-23T11:17:59.517Z,265
2018-08-23T11:18:59.261Z,280
2018-08-23T11:19:59.271Z,295
2018-08-23T11:20:59.024Z,305
2018-08-23T11:21:59.562Z,310
2018-08-23T11:22:59.051Z,330
2018-08-23T11:23:59.563Z,325
2018-08-23T11:24:59.050Z,305
2018-08-23T11:25:59.570Z,290
2018-08-23T11:26:59.330Z,280
2018-08-23T11:27:59.333Z,265
2018-08-23T11:28:59.344Z,265
2018-08-23T11:30:00.103Z,265
2018-08-23T11:30:59.358Z,255
2018-08-23T11:31:59.624Z,240
2018-08-23T11:32:59.373Z,230
2018-08-23T11:33:59.642Z,235
2018-08-23T11:34:59.203Z,235
2018-08-23T11:35:59.392Z,230
2018-08-23T11:36:59.407Z,220
2018-08-23T11:37:59.158Z,220
2018-08-23T11:38:59.696Z,230
2018-08-23T11:39:59.680Z,250
2018-08-23T11:40:59.711Z,275
2018-08-23T11:41:58.928Z,280
2018-08-23T11:43:00.018Z,255
2018-08-23T11:43:59.721Z,255
2018-08-23T11:44:59.211Z,275
2018-08-23T11:45:59.224Z,285
2018-08-23T11:46:59.481Z,325
2018-08-23T11:47:59.235Z,330
2018-08-23T11:49:00.470Z,325
2018-08-23T11:49:59.764Z,305
2018-08-23T11:50:59.514Z,305
2018-08-23T11:51:59.798Z,300
2018-08-23T11:52:59.949Z,300
2018-08-23T11:53:59.995Z,305
2018-08-23T11:54:59.292Z,315
2018-08-23T11:55:59.551Z,325
2018-08-23T11:56:59.826Z,325
2018-08-23T11:57:59.776Z,315
2018-08-23T11:58:59.623Z,300
2018-08-23T11:59:59.597Z,295
2018-08-23T12:00:59.091Z,290
2018-08-23T12:01:59.634Z,275
2018-08-23T12:02:59.619Z,260
2018-08-23T12:03:59.871Z,255
2018-08-23T12:04:59.378Z,260
2018-08-23T12:05:59.634Z,250
2018-08-23T12:06:59.385Z,260
2018-08-23T12:07:59.654Z,270
2018-08-23T12:08:59.666Z,275
2018-08-23T12:10:00.052Z,265
2018-08-23T12:10:59.673Z,235
2018-08-23T12:11:59.687Z,215
2018-08-23T12:12:59.952Z,205
2018-08-23T12:14:00.007Z,210
2018-08-23T12:14:59.972Z,215
2018-08-23T12:15:59.886Z,215
2018-08-23T12:16:59.464Z,210
2018-08-23T12:17:59.741Z,205
2018-08-23T12:18:59.740Z,200
2018-08-23T12:20:00.010Z,195
2018-08-23T12:21:00.007Z,190
2018-08-23T12:21:59.774Z,190
2018-08-23T12:22:59.765Z,185
2018-08-23T12:24:00.037Z,190
2018-08-23T12:24:59.783Z,195
2018-08-23T12:26:00.825Z,210
2018-08-23T12:26:59.799Z,220
2018-08-23T12:28:00.079Z,230
2018-08-23T12:29:00.096Z,235
2018-08-23T12:29:59.859Z,240
2018-08-23T12:30:59.569Z,240
2018-08-23T12:32:00.237Z,250
2018-08-23T12:32:59.842Z,250
2018-08-23T12:33:59.629Z,255
2018-08-23T12:35:00.676Z,255
2018-08-23T12:35:59.872Z,250
2018-08-23T12:36:59.356Z,250
2018-08-23T12:38:00.194Z,250
2018-08-23T12:39:00.143Z,255
2018-08-23T12:39:59.629Z,270
2018-08-23T12:41:00.444Z,295
2018-08-23T12:41:59.906Z,315
2018-08-23T12:42:59.914Z,320
2018-08-23T12:43:59.767Z,320
2018-08-23T12:44:59.929Z,325
2018-08-23T12:45:59.939Z,335
2018-08-23T12:46:59.474Z,355
2018-08-23T12:47:59.949Z,360
2018-08-23T12:48:59.693Z,360
2018-08-23T12:50:00.087Z,345
2018-08-23T12:51:00.224Z,330
2018-08-23T12:52:00.230Z,315
2018-08-23T12:52:59.721Z,295
2018-08-23T12:54:00.039Z,280
2018-08-23T12:55:00.248Z,270
2018-08-23T12:55:59.997Z,260
2018-08-23T12:57:00.262Z,245
2018-08-23T12:57:59.758Z,235
2018-08-23T12:59:00.024Z,210
2018-08-23T13:00:00.291Z,200
2018-08-23T13:01:00.032Z,185
2018-08-23T13:02:00.173Z,175
2018-08-23T13:03:01.015Z,160
2018-08-23T13:04:00.959Z,145
2018-08-23T13:04:59.545Z,145
2018-08-23T13:06:00.091Z,145
2018-08-23T13:06:59.840Z,145
2018-08-23T13:07:59.819Z,150
2018-08-23T13:09:00.398Z,155
2018-08-23T13:10:00.104Z,175
2018-08-23T13:11:00.245Z,190
2018-08-23T13:12:00.107Z,210
2018-08-23T13:13:00.105Z,220
2018-08-23T13:14:00.370Z,225
2018-08-23T13:15:00.379Z,220
2018-08-23T13:16:00.378Z,215
2018-08-23T13:17:00.391Z,210
2018-08-23T13:18:00.596Z,205
2018-08-23T13:19:00.440Z,205
2018-08-23T13:20:00.221Z,205
2018-08-23T13:21:00.154Z,200
2018-08-23T13:22:01.008Z,200
2018-08-23T13:23:00.459Z,200
2018-08-23T13:24:00.173Z,200
2018-08-23T13:24:59.920Z,200
2018-08-23T13:26:00.200Z,210
2018-08-23T13:26:59.999Z,215
2018-08-23T13:28:00.213Z,230
2018-08-23T13:29:00.198Z,235
2018-08-23T13:30:00.311Z,235
2018-08-23T13:31:00.240Z,230
2018-08-23T13:32:00.572Z,220
2018-08-23T13:33:00.476Z,215
2018-08-23T13:33:59.966Z,205
2018-08-23T13:34:59.976Z,205
2018-08-23T13:36:00.257Z,200
2018-08-23T13:37:00.728Z,190
2018-08-23T13:38:00.503Z,185
2018-08-23T13:39:00.022Z,175
2018-08-23T13:40:00.510Z,170
2018-08-23T13:41:00.016Z,165
2018-08-23T13:42:00.362Z,155
2018-08-23T13:43:00.313Z,155
2018-08-23T13:44:00.752Z,155
2018-08-23T13:45:00.438Z,160
2018-08-23T13:46:00.267Z,170
2018-08-23T13:47:00.538Z,175
2018-08-23T13:48:00.016Z,180
2018-08-23T13:49:00.544Z,185
2018-08-23T13:50:00.280Z,190
2018-08-23T13:51:00.024Z,195
2018-08-23T13:52:00.033Z,195
2018-08-23T13:53:00.289Z,195
2018-08-23T13:54:01.294Z,195
2018-08-23T13:55:00.329Z,195
2018-08-23T13:56:00.140Z,195
2018-08-23T13:57:00.301Z,195
2018-08-23T13:58:00.311Z,195
2018-08-23T13:59:00.700Z,200
2018-08-23T14:00:00.649Z,205
2018-08-23T14:01:00.063Z,215
2018-08-23T14:02:00.318Z,225
2018-08-23T14:03:00.577Z,235
2018-08-23T14:04:00.409Z,245
2018-08-23T14:05:00.329Z,250
2018-08-23T14:06:00.752Z,260
2018-08-23T14:07:00.582Z,270
2018-08-23T14:08:00.075Z,280